Time;durP1;ratioP1;P1;durP2;ratioP2;P2;SDS_P1;SDS_P2;PMS_P1;PMS_P2;Temp;Humidity;BMP_temperature;BMP_pressure;BME280_temperature;BME280_humidity;BME280_pressure;Samples;Min_cycle;Max_cycle;Signal;HPM_P1;HPM_P2
2022/11/13 00:01:38;;;;;;;24.95;22.25;;;6.40;99.90;;;;;;4984683;28;20056;-60
2022/11/13 00:04:04;;;;;;;27.73;24.88;;;6.00;99.90;;;;;;4984050;28;20474;-62
2022/11/13 00:06:30;;;;;;;29.40;26.30;;;6.10;99.90;;;;;;4983553;28;20490;-61
2022/11/13 00:08:55;;;;;;;29.25;24.70;;;6.10;99.90;;;;;;4983899;28;20049;-59
2022/11/13 00:11:21;;;;;;;28.77;25.77;;;6.00;99.90;;;;;;4983257;28;20055;-60
2022/11/13 00:13:48;;;;;;;28.70;24.00;;;6.10;99.90;;;;;;4983630;28;20074;-62
2022/11/13 00:16:16;;;;;;;26.73;23.83;;;5.90;99.90;;;;;;4984614;28;21010;-59
2022/11/13 00:18:43;;;;;;;27.17;24.35;;;5.90;99.90;;;;;;4984017;28;20943;-61
2022/11/13 00:21:15;;;;;;;26.73;23.92;;;6.00;99.90;;;;;;4983997;28;20089;-63
2022/11/13 00:23:40;;;;;;;25.60;22.98;;;6.00;99.90;;;;;;4984483;28;20805;-61
2022/11/13 00:26:12;;;;;;;28.20;23.88;;;6.10;99.90;;;;;;4984100;28;20069;-60
2022/11/13 00:28:38;;;;;;;25.52;22.45;;;6.00;99.90;;;;;;4983380;28;20386;-60
2022/11/13 00:31:05;;;;;;;25.67;22.90;;;5.90;99.90;;;;;;4981833;28;20050;-59
2022/11/13 00:33:31;;;;;;;26.55;22.50;;;6.00;99.90;;;;;;4984142;28;20132;-61
2022/11/13 00:36:02;;;;;;;25.27;22.58;;;6.10;99.90;;;;;;4984531;28;20104;-60
2022/11/13 00:38:28;;;;;;;25.05;22.45;;;6.10;99.90;;;;;;4982575;28;20046;-60
2022/11/13 00:40:53;;;;;;;26.17;23.38;;;5.90;99.90;;;;;;4984331;28;20121;-59
2022/11/13 00:43:19;;;;;;;25.20;22.52;;;6.10;99.90;;;;;;4985280;28;20046;-59
2022/11/13 00:45:44;;;;;;;26.38;23.02;;;6.10;99.90;;;;;;4982978;28;20132;-59
2022/11/13 00:48:10;;;;;;;25.27;22.08;;;6.20;99.90;;;;;;4982778;28;20478;-59
2022/11/13 00:50:36;;;;;;;26.33;23.10;;;6.10;99.90;;;;;;4983814;28;20145;-60
2022/11/13 00:53:01;;;;;;;25.42;22.73;;;6.10;99.90;;;;;;4982069;28;20088;-60
2022/11/13 00:55:27;;;;;;;26.05;23.33;;;6.10;99.90;;;;;;4984293;28;20089;-60
2022/11/13 00:57:53;;;;;;;25.65;22.50;;;6.20;99.90;;;;;;4983952;28;20050;-61
2022/11/13 01:00:18;;;;;;;25.20;22.60;;;6.20;99.90;;;;;;4984515;28;20052;-59
2022/11/13 01:02:44;;;;;;;26.10;23.40;;;6.20;99.90;;;;;;4984401;28;20046;-62
2022/11/13 01:05:09;;;;;;;27.33;23.60;;;6.20;99.90;;;;;;4982329;28;20049;-61
2022/11/13 01:07:36;;;;;;;25.13;22.52;;;6.10;99.90;;;;;;4983516;28;20050;-60
2022/11/13 01:10:04;;;;;;;25.13;22.20;;;6.20;99.90;;;;;;4984015;28;20069;-62
2022/11/13 01:12:29;;;;;;;24.83;22.23;;;6.10;99.90;;;;;;4984070;28;20081;-59
2022/11/13 01:14:55;;;;;;;25.40;22.58;;;6.10;99.90;;;;;;4983594;28;20088;-62
2022/11/13 01:17:21;;;;;;;27.70;24.60;;;6.20;99.90;;;;;;4983831;28;20489;-61
2022/11/13 01:19:47;;;;;;;29.98;25.42;;;6.50;99.90;;;;;;4983861;28;20051;-59
2022/11/13 01:22:12;;;;;;;25.75;22.98;;;6.10;99.90;;;;;;4982200;28;20069;-61
2022/11/13 01:24:38;;;;;;;25.05;22.23;;;6.40;99.90;;;;;;4982930;28;20035;-59
2022/11/13 01:27:04;;;;;;;27.33;22.02;;;6.30;99.90;;;;;;4983815;28;20038;-59
2022/11/13 01:29:30;;;;;;;24.80;22.08;;;6.30;99.90;;;;;;4983579;28;20046;-61
2022/11/13 01:31:56;;;;;;;25.88;23.08;;;6.40;99.90;;;;;;4983116;28;20637;-59
2022/11/13 01:34:22;;;;;;;25.70;21.92;;;6.60;99.90;;;;;;4983529;28;20087;-60
2022/11/13 01:36:47;;;;;;;26.48;22.67;;;6.30;99.90;;;;;;4983081;28;20080;-59
2022/11/13 01:39:13;;;;;;;25.77;21.40;;;6.40;99.90;;;;;;4982592;28;20043;-59
2022/11/13 01:41:39;;;;;;;26.02;22.77;;;6.40;99.90;;;;;;4982423;28;20108;-61
2022/11/13 01:44:09;;;;;;;26.70;22.02;;;6.60;99.90;;;;;;4983560;28;20038;-60
2022/11/13 01:46:55;;;;;;;25.15;22.55;;;6.30;99.90;;;;;;4981998;28;20089;-61
2022/11/13 01:49:29;;;;;;;24.63;21.92;;;6.40;99.90;;;;;;4983967;28;20053;-59
2022/11/13 01:52:02;;;;;;;26.75;22.70;;;6.30;99.90;;;;;;4983114;28;20096;-59
2022/11/13 01:54:38;;;;;;;25.20;22.25;;;6.30;99.90;;;;;;4982423;28;20041;-60
2022/11/13 01:57:04;;;;;;;25.77;22.88;;;6.60;99.90;;;;;;4983614;28;20429;-61
2022/11/13 01:59:40;;;;;;;25.88;22.02;;;6.30;99.90;;;;;;4983852;28;20046;-59
2022/11/13 02:02:06;;;;;;;26.13;22.30;;;6.30;99.90;;;;;;4983518;28;20133;-59
2022/11/13 02:04:33;;;;;;;25.17;21.45;;;6.30;99.90;;;;;;4982735;28;20026;-60
2022/11/13 02:07:03;;;;;;;24.80;21.85;;;6.30;99.90;;;;;;4982532;28;20042;-59
2022/11/13 02:09:43;;;;;;;25.45;21.27;;;6.60;99.90;;;;;;4981322;28;20039;-61
2022/11/13 02:12:12;;;;;;;24.10;21.55;;;6.30;99.90;;;;;;4982959;28;20085;-60
2022/11/13 02:14:44;;;;;;;26.85;21.83;;;6.20;99.90;;;;;;4982428;28;20062;-61
2022/11/13 02:17:14;;;;;;;25.08;21.40;;;6.30;99.90;;;;;;5072564;23;20112;-59
2022/11/13 02:19:44;;;;;;;23.60;21.13;;;6.30;99.90;;;;;;5001414;28;20424;-61
2022/11/13 02:22:16;;;;;;;24.48;21.23;;;6.10;99.90;;;;;;4999597;28;20093;-61
2022/11/13 02:24:44;;;;;;;24.05;20.05;;;6.30;99.90;;;;;;5002464;28;20048;-60
2022/11/13 02:27:18;;;;;;;23.45;20.60;;;6.30;99.90;;;;;;5001903;28;20046;-62
2022/11/13 02:29:44;;;;;;;23.23;20.83;;;6.10;99.90;;;;;;5001315;28;20408;-62
2022/11/13 02:32:10;;;;;;;23.60;21.00;;;6.30;99.90;;;;;;5002491;28;20030;-59
2022/11/13 02:34:35;;;;;;;22.88;20.45;;;6.20;99.90;;;;;;5001862;28;20603;-61
2022/11/13 02:37:01;;;;;;;23.08;19.90;;;6.30;99.90;;;;;;5000902;28;20049;-61
2022/11/13 02:39:26;;;;;;;25.33;20.08;;;6.10;99.90;;;;;;5002353;28;20061;-59
2022/11/13 02:41:52;;;;;;;25.60;19.95;;;6.10;99.90;;;;;;5001553;28;20117;-61
2022/11/13 02:44:18;;;;;;;23.80;20.85;;;6.20;99.90;;;;;;5002301;28;20147;-61
2022/11/13 02:46:43;;;;;;;23.83;20.02;;;6.10;99.90;;;;;;5001194;28;20116;-59
2022/11/13 02:49:09;;;;;;;25.55;20.27;;;5.90;99.90;;;;;;5001495;28;20456;-60
2022/11/13 02:51:35;;;;;;;25.58;20.98;;;6.00;99.90;;;;;;5000503;28;20042;-59
2022/11/13 02:54:00;;;;;;;22.25;19.60;;;6.20;99.90;;;;;;5002107;28;20050;-62
2022/11/13 02:56:26;;;;;;;24.00;20.33;;;6.00;99.90;;;;;;5001066;28;20038;-61
2022/11/13 02:58:52;;;;;;;23.92;20.13;;;6.10;99.90;;;;;;5001790;28;20450;-60
2022/11/13 03:01:17;;;;;;;22.75;20.33;;;6.10;99.90;;;;;;5004346;28;20041;-61
2022/11/13 03:03:43;;;;;;;24.13;19.92;;;6.20;99.90;;;;;;5005167;28;20085;-61
2022/11/13 03:06:09;;;;;;;24.40;19.95;;;5.90;99.90;;;;;;5003363;28;20041;-60
2022/11/13 03:08:34;;;;;;;23.08;20.67;;;6.10;99.90;;;;;;5005058;28;20104;-61
2022/11/13 03:11:06;;;;;;;25.92;20.63;;;6.20;99.90;;;;;;4987793;28;20052;-59
2022/11/13 03:13:31;;;;;;;23.70;20.30;;;5.90;99.90;;;;;;5004133;28;20041;-61
2022/11/13 03:16:11;;;;;;;23.13;20.17;;;6.10;99.90;;;;;;5005849;28;20073;-61
2022/11/13 03:18:37;;;;;;;24.60;19.95;;;6.00;99.90;;;;;;5004553;28;20129;-59
2022/11/13 03:21:07;;;;;;;22.60;20.20;;;5.80;99.90;;;;;;5003516;28;20132;-61
2022/11/13 03:23:33;;;;;;;22.98;20.20;;;5.80;99.90;;;;;;5005717;28;20377;-60
2022/11/13 03:26:08;;;;;;;25.05;19.88;;;5.70;99.90;;;;;;5004547;28;20046;-60
2022/11/13 03:28:35;;;;;;;23.05;19.23;;;5.70;99.90;;;;;;5004536;28;20072;-61
2022/11/13 03:31:01;;;;;;;24.08;20.52;;;5.70;99.90;;;;;;5005673;28;20041;-60
2022/11/13 03:33:27;;;;;;;24.65;20.67;;;5.80;99.90;;;;;;5005616;28;20432;-59
2022/11/13 03:35:53;;;;;;;24.58;20.70;;;5.80;99.90;;;;;;5002556;28;20637;-60
2022/11/13 03:38:19;;;;;;;22.70;19.70;;;5.70;99.90;;;;;;4987126;28;20050;-60
2022/11/13 03:40:45;;;;;;;22.20;19.80;;;5.70;99.90;;;;;;5005368;28;20114;-60
2022/11/13 03:43:11;;;;;;;22.40;18.98;;;5.70;99.90;;;;;;5004790;28;20078;-60
2022/11/13 03:45:36;;;;;;;21.92;19.63;;;6.10;99.90;;;;;;4985306;28;20045;-59
2022/11/13 03:48:02;;;;;;;21.65;19.17;;;5.70;99.90;;;;;;5004296;28;20041;-61
2022/11/13 03:50:28;;;;;;;21.73;19.15;;;5.70;99.90;;;;;;5004196;28;20042;-59
2022/11/13 03:52:53;;;;;;;21.05;18.70;;;5.70;99.90;;;;;;5003703;28;20049;-60
2022/11/13 03:55:19;;;;;;;22.08;19.40;;;5.50;99.90;;;;;;5003938;28;20057;-60
2022/11/13 03:57:46;;;;;;;21.38;18.65;;;5.50;99.90;;;;;;5003751;28;20076;-59
2022/11/13 04:00:12;;;;;;;22.75;20.35;;;5.60;99.90;;;;;;5003557;28;20107;-61
2022/11/13 04:02:38;;;;;;;23.90;19.35;;;5.50;99.90;;;;;;5003465;28;20058;-60
2022/11/13 04:05:05;;;;;;;21.85;19.45;;;5.70;99.90;;;;;;5003455;28;20042;-61
2022/11/13 04:07:30;;;;;;;21.10;18.63;;;5.50;99.90;;;;;;5003900;28;20187;-60
2022/11/13 04:09:56;;;;;;;21.48;19.17;;;5.50;99.90;;;;;;5004590;28;20124;-59
2022/11/13 04:12:21;;;;;;;21.77;18.17;;;5.80;99.90;;;;;;5002345;28;20602;-60
2022/11/13 04:14:47;;;;;;;20.50;18.05;;;5.50;99.90;;;;;;5003354;28;20172;-59
2022/11/13 04:17:13;;;;;;;21.08;18.27;;;5.50;99.90;;;;;;4986582;28;20133;-58
2022/11/13 04:19:38;;;;;;;19.88;17.10;;;5.50;99.90;;;;;;5002315;28;20046;-60
2022/11/13 04:22:04;;;;;;;21.05;18.42;;;5.60;99.90;;;;;;5003226;28;20117;-59
2022/11/13 04:24:30;;;;;;;20.83;18.00;;;5.50;99.90;;;;;;5003106;28;20137;-60
2022/11/13 04:26:56;;;;;;;21.98;18.77;;;5.40;99.90;;;;;;5003271;28;20046;-60
2022/11/13 04:29:21;;;;;;;21.40;18.80;;;5.30;99.90;;;;;;5002996;28;20081;-59
2022/11/13 04:31:47;;;;;;;21.55;18.50;;;5.40;99.90;;;;;;5004009;28;20128;-60
2022/11/13 04:34:13;;;;;;;20.83;18.63;;;5.70;99.90;;;;;;5001516;28;20054;-59
2022/11/13 04:36:38;;;;;;;20.15;17.95;;;5.50;99.90;;;;;;5003155;28;20046;-60
2022/11/13 04:39:04;;;;;;;20.88;17.20;;;5.40;99.90;;;;;;5001504;28;20037;-60
2022/11/13 04:44:14;;;;;;;19.65;17.30;;;5.20;99.90;;;;;;5002613;28;20045;-60
2022/11/13 04:46:40;;;;;;;18.90;16.77;;;5.60;99.90;;;;;;5003525;28;20037;-59
2022/11/13 04:49:05;;;;;;;20.27;17.80;;;5.30;99.90;;;;;;5003873;28;20046;-59
2022/11/13 04:51:31;;;;;;;22.48;18.88;;;5.20;99.90;;;;;;5003090;28;20038;-60
2022/11/13 04:53:56;;;;;;;23.02;19.08;;;5.50;99.90;;;;;;5003575;28;20046;-59
2022/11/13 04:56:22;;;;;;;20.45;18.27;;;5.40;99.90;;;;;;5003615;28;20132;-60
2022/11/13 04:58:48;;;;;;;22.77;19.10;;;5.70;99.90;;;;;;5003155;28;20127;-60
2022/11/13 05:01:13;;;;;;;21.60;18.10;;;5.30;99.90;;;;;;5004149;28;20045;-59
2022/11/13 05:03:39;;;;;;;22.17;18.88;;;5.10;99.90;;;;;;5002229;28;20050;-60
2022/11/13 05:06:07;;;;;;;22.85;18.75;;;5.30;99.90;;;;;;5002544;28;20048;-59
2022/11/13 05:08:33;;;;;;;22.50;18.17;;;5.20;99.90;;;;;;5003153;28;20061;-60
2022/11/13 05:11:00;;;;;;;19.48;17.42;;;5.20;99.90;;;;;;5002448;28;20156;-60
2022/11/13 05:13:28;;;;;;;22.05;18.75;;;5.20;99.90;;;;;;5003271;28;20042;-59
2022/11/13 05:16:06;;;;;;;20.98;18.42;;;5.10;99.90;;;;;;5001860;28;20135;-60
2022/11/13 05:18:33;;;;;;;21.15;17.85;;;5.30;99.90;;;;;;5002157;28;20464;-60
2022/11/13 05:20:59;;;;;;;19.73;17.23;;;5.10;99.90;;;;;;5002732;28;20048;-59
2022/11/13 05:23:25;;;;;;;21.85;17.50;;;5.10;99.90;;;;;;5000961;28;20052;-60
2022/11/13 05:25:51;;;;;;;21.25;17.60;;;5.10;99.90;;;;;;5001957;28;20050;-59
2022/11/13 05:28:17;;;;;;;20.48;17.73;;;5.30;99.90;;;;;;5001789;28;20042;-60
2022/11/13 05:30:42;;;;;;;20.38;16.83;;;5.20;99.90;;;;;;5002529;28;20112;-58
2022/11/13 05:33:08;;;;;;;19.60;17.27;;;5.30;99.90;;;;;;5003370;28;20412;-60
2022/11/13 05:35:34;;;;;;;21.42;17.48;;;5.50;99.90;;;;;;5001571;28;20460;-60
2022/11/13 05:38:01;;;;;;;20.20;17.77;;;5.20;99.90;;;;;;5002163;28;20038;-58
2022/11/13 05:40:27;;;;;;;21.30;17.05;;;5.00;99.90;;;;;;5001978;28;20041;-60
2022/11/13 05:42:54;;;;;;;22.58;18.05;;;5.00;99.90;;;;;;5002460;28;20045;-60
2022/11/13 05:45:20;;;;;;;20.00;17.38;;;5.20;99.90;;;;;;5001950;28;20408;-59
2022/11/13 05:47:45;;;;;;;18.88;15.68;;;5.00;99.90;;;;;;5002294;28;20050;-61
2022/11/13 05:50:11;;;;;;;19.23;16.98;;;5.00;99.90;;;;;;5002798;28;20092;-59
2022/11/13 05:52:37;;;;;;;19.25;16.95;;;5.10;99.90;;;;;;5001470;28;20751;-61
2022/11/13 05:55:03;;;;;;;19.60;16.38;;;5.10;99.90;;;;;;5002212;28;20069;-59
2022/11/13 05:57:29;;;;;;;20.02;16.95;;;5.10;99.90;;;;;;5001838;28;20125;-59
2022/11/13 05:59:55;;;;;;;18.60;16.60;;;5.20;99.90;;;;;;5002244;28;20130;-60
2022/11/13 06:02:20;;;;;;;18.83;16.15;;;5.30;99.90;;;;;;5001609;28;20042;-59
2022/11/13 06:04:47;;;;;;;20.67;16.25;;;5.00;99.90;;;;;;5001774;28;20088;-60
2022/11/13 06:07:13;;;;;;;18.80;15.60;;;4.80;99.90;;;;;;5000730;28;20050;-60
2022/11/13 06:09:39;;;;;;;16.48;14.52;;;4.90;99.90;;;;;;4984965;28;20042;-59
2022/11/13 06:12:05;;;;;;;16.52;14.43;;;4.70;99.90;;;;;;5000926;28;20540;-60
2022/11/13 06:14:30;;;;;;;19.80;16.17;;;4.80;99.90;;;;;;5002321;28;20107;-60
2022/11/13 06:16:56;;;;;;;20.55;16.52;;;4.80;99.90;;;;;;5002098;28;20103;-60
2022/11/13 06:19:22;;;;;;;21.23;17.60;;;4.80;99.90;;;;;;5000514;28;20053;-59
2022/11/13 06:21:48;;;;;;;20.85;17.10;;;4.60;99.90;;;;;;5001098;28;20153;-59
2022/11/13 06:24:13;;;;;;;19.55;17.45;;;4.60;99.90;;;;;;5001704;28;20566;-59
2022/11/13 06:26:39;;;;;;;21.42;17.45;;;5.10;99.90;;;;;;5001897;28;20046;-58
2022/11/13 06:29:06;;;;;;;19.35;16.88;;;4.50;99.90;;;;;;5001493;28;20092;-58
2022/11/13 06:31:34;;;;;;;21.13;16.42;;;4.50;99.90;;;;;;5001334;28;20104;-60
2022/11/13 06:34:00;;;;;;;21.48;18.08;;;4.90;99.90;;;;;;5002014;28;20156;-59
2022/11/13 06:36:29;;;;;;;20.98;17.63;;;4.60;99.90;;;;;;5003415;28;20392;-60
2022/11/13 06:38:55;;;;;;;21.73;17.02;;;4.70;99.90;;;;;;5005045;28;20046;-59
2022/11/13 06:41:23;;;;;;;20.95;17.80;;;4.60;99.90;;;;;;4987341;28;20045;-60
2022/11/13 06:43:49;;;;;;;22.20;18.52;;;4.60;99.90;;;;;;5005792;28;20081;-58
2022/11/13 06:46:20;;;;;;;20.48;17.45;;;4.70;99.90;;;;;;5006068;28;20113;-60
2022/11/13 06:48:46;;;;;;;21.20;18.00;;;4.70;99.90;;;;;;5005954;28;20053;-59
2022/11/13 06:51:18;;;;;;;21.08;17.52;;;4.70;99.90;;;;;;5004632;28;20080;-60
2022/11/13 06:53:44;;;;;;;19.63;16.77;;;4.60;99.90;;;;;;5005133;28;20050;-59
2022/11/13 06:56:10;;;;;;;21.00;17.35;;;4.70;99.90;;;;;;5004891;28;20046;-60
2022/11/13 06:58:37;;;;;;;19.48;16.45;;;4.70;99.90;;;;;;5005409;28;20057;-59
2022/11/13 07:01:11;;;;;;;20.80;16.95;;;4.80;99.90;;;;;;5005218;28;20057;-61
2022/11/13 07:03:37;;;;;;;19.15;16.55;;;4.70;99.90;;;;;;5005806;28;20042;-59
2022/11/13 07:06:04;;;;;;;19.08;16.15;;;4.50;99.90;;;;;;4986537;28;20121;-59
2022/11/13 07:08:30;;;;;;;19.83;16.80;;;4.60;99.90;;;;;;4987421;28;20457;-58
2022/11/13 07:10:57;;;;;;;18.45;16.38;;;4.50;99.90;;;;;;5004253;28;20073;-59
2022/11/13 07:13:24;;;;;;;20.70;16.98;;;4.40;99.90;;;;;;5004611;28;20129;-58
2022/11/13 07:15:49;;;;;;;19.58;15.50;;;4.80;99.90;;;;;;5004914;28;20081;-60
2022/11/13 07:18:15;;;;;;;21.33;17.70;;;4.50;99.90;;;;;;5004491;28;20112;-59
2022/11/13 07:20:41;;;;;;;21.05;17.63;;;4.60;99.90;;;;;;5005225;28;20058;-59
2022/11/13 07:23:07;;;;;;;20.83;17.02;;;4.50;99.90;;;;;;5004807;28;20041;-60
2022/11/13 07:25:33;;;;;;;21.33;17.30;;;4.50;99.90;;;;;;5005148;28;20100;-59
2022/11/13 07:27:58;;;;;;;22.73;17.58;;;5.10;99.90;;;;;;5004941;28;20041;-60
2022/11/13 07:30:25;;;;;;;20.45;17.67;;;4.80;99.90;;;;;;5004871;28;20085;-59
2022/11/13 07:32:51;;;;;;;20.02;16.17;;;4.60;99.90;;;;;;5004510;28;20042;-59
2022/11/13 07:35:16;;;;;;;19.75;17.00;;;4.80;99.90;;;;;;5002217;28;20731;-60
2022/11/13 07:37:42;;;;;;;22.95;17.95;;;4.80;99.90;;;;;;5004817;28;20044;-60
2022/11/13 07:40:09;;;;;;;23.98;17.70;;;5.50;99.90;;;;;;5004670;28;20057;-59
2022/11/13 07:42:35;;;;;;;20.42;16.92;;;4.80;99.90;;;;;;5004141;28;20088;-60
2022/11/13 07:45:00;;;;;;;20.08;16.73;;;4.70;99.90;;;;;;5003199;28;20042;-60
2022/11/13 07:47:26;;;;;;;19.27;16.55;;;5.10;99.90;;;;;;5004881;28;20065;-61
2022/11/13 07:49:52;;;;;;;20.73;17.02;;;4.80;99.90;;;;;;5004304;28;20045;-59
2022/11/13 07:52:17;;;;;;;20.60;17.13;;;4.90;99.90;;;;;;5002238;28;20076;-59
2022/11/13 07:54:43;;;;;;;20.02;16.40;;;4.80;99.90;;;;;;5004054;28;20492;-61
2022/11/13 07:57:09;;;;;;;20.30;16.52;;;5.30;99.90;;;;;;5004870;28;20048;-59
2022/11/13 07:59:34;;;;;;;22.30;16.83;;;4.70;99.90;;;;;;5004092;28;20080;-60
2022/11/13 08:02:00;;;;;;;22.27;17.23;;;4.80;99.90;;;;;;5003917;28;20101;-61
2022/11/13 08:04:27;;;;;;;20.73;16.77;;;5.00;99.90;;;;;;5003390;28;20088;-59
2022/11/13 08:06:52;;;;;;;19.23;16.67;;;4.70;99.90;;;;;;4985534;28;20066;-59
2022/11/13 08:09:18;;;;;;;18.73;16.02;;;4.60;99.90;;;;;;5004484;28;20068;-59
2022/11/13 08:11:44;;;;;;;21.20;16.15;;;4.90;99.90;;;;;;5003905;28;20057;-58
2022/11/13 08:14:10;;;;;;;20.13;16.83;;;4.80;99.90;;;;;;5003483;28;20144;-60
2022/11/13 08:16:35;;;;;;;20.45;17.35;;;4.90;99.90;;;;;;4999164;28;20835;-58
2022/11/13 08:19:02;;;;;;;19.63;15.90;;;4.90;99.90;;;;;;4984350;28;20677;-61
2022/11/13 08:21:27;;;;;;;20.17;17.13;;;5.00;99.90;;;;;;4982678;28;20084;-59
2022/11/13 08:23:53;;;;;;;22.38;16.90;;;5.20;99.90;;;;;;4984424;28;20600;-59
2022/11/13 08:26:19;;;;;;;18.70;16.45;;;5.10;99.90;;;;;;4983677;28;20046;-61
2022/11/13 08:28:45;;;;;;;20.17;15.60;;;5.50;99.90;;;;;;4984461;28;20046;-59
2022/11/13 08:31:12;;;;;;;18.55;16.33;;;5.60;99.90;;;;;;4983429;28;20072;-60
2022/11/13 08:33:39;;;;;;;18.35;16.13;;;5.50;99.90;;;;;;4982555;28;20073;-61
2022/11/13 08:36:05;;;;;;;19.27;17.17;;;5.50;99.90;;;;;;4983670;28;20613;-58
2022/11/13 08:38:30;;;;;;;18.67;16.38;;;5.70;99.90;;;;;;4983351;28;20125;-61
2022/11/13 08:41:01;;;;;;;18.58;16.25;;;5.90;99.90;;;;;;4983234;28;20073;-59
2022/11/13 08:43:27;;;;;;;17.35;15.45;;;5.70;99.90;;;;;;4983339;28;20070;-60
2022/11/13 08:45:53;;;;;;;19.33;16.17;;;5.90;99.90;;;;;;4983688;28;20088;-60
2022/11/13 08:48:19;;;;;;;17.65;15.63;;;5.90;99.90;;;;;;4982366;28;20053;-61
2022/11/13 08:50:44;;;;;;;18.38;15.75;;;5.90;99.90;;;;;;4983317;28;20649;-59
2022/11/13 08:53:10;;;;;;;19.13;15.90;;;6.10;99.90;;;;;;4984222;28;20050;-60
2022/11/13 08:55:36;;;;;;;17.88;15.70;;;6.30;99.90;;;;;;4982396;28;20070;-61
2022/11/13 08:58:03;;;;;;;17.48;15.27;;;6.70;99.90;;;;;;4983916;28;20050;-59
2022/11/13 09:00:30;;;;;;;18.33;15.50;;;6.50;99.90;;;;;;4983807;28;20063;-60
2022/11/13 09:02:57;;;;;;;17.50;15.25;;;6.60;99.90;;;;;;4983760;28;20545;-59
2022/11/13 09:05:24;;;;;;;16.85;14.88;;;6.60;99.90;;;;;;4982276;28;20038;-60
2022/11/13 09:07:50;;;;;;;17.85;14.18;;;6.80;99.90;;;;;;4999157;28;20089;-60
2022/11/13 09:10:17;;;;;;;16.73;13.95;;;6.90;99.90;;;;;;4984491;28;20038;-59
2022/11/13 09:12:43;;;;;;;16.35;13.85;;;7.10;99.90;;;;;;4980422;28;20053;-60
2022/11/13 09:15:10;;;;;;;14.52;13.02;;;7.00;99.90;;;;;;4983184;28;20050;-59
2022/11/13 09:17:36;;;;;;;16.30;14.25;;;7.20;99.90;;;;;;4998407;28;20084;-61
2022/11/13 09:20:02;;;;;;;15.10;13.23;;;7.80;99.90;;;;;;5002243;28;20560;-59
2022/11/13 09:22:28;;;;;;;14.93;13.25;;;7.60;99.90;;;;;;4984140;28;20103;-59
2022/11/13 09:24:53;;;;;;;15.13;11.77;;;7.80;99.90;;;;;;4984225;28;20524;-59
2022/11/13 09:27:19;;;;;;;15.07;12.75;;;7.90;99.90;;;;;;5002230;28;20045;-60
2022/11/13 09:29:45;;;;;;;13.40;12.00;;;8.30;99.90;;;;;;5001361;28;20112;-61
2022/11/13 09:32:11;;;;;;;13.80;11.52;;;8.90;99.90;;;;;;5002611;28;20133;-60
2022/11/13 09:34:36;;;;;;;15.77;11.20;;;10.00;99.90;;;;;;5001906;28;20048;-61
2022/11/13 09:37:02;;;;;;;12.73;10.77;;;11.20;99.90;;;;;;5001333;28;20516;-59
2022/11/13 09:39:28;;;;;;;11.90;9.88;;;12.10;99.90;;;;;;4983398;28;20109;-59
2022/11/13 09:42:19;;;;;;;11.52;10.18;;;12.70;99.90;;;;;;5002401;28;20126;-61
2022/11/13 09:45:01;;;;;;;11.65;9.73;;;12.90;99.90;;;;;;4982926;28;20054;-59
2022/11/13 09:47:32;;;;;;;10.27;9.18;;;13.90;99.90;;;;;;5002274;28;20049;-60
2022/11/13 09:50:19;;;;;;;12.52;9.55;;;13.80;99.90;;;;;;4984798;28;20132;-60
2022/11/13 09:52:45;;;;;;;13.57;9.15;;;14.50;99.90;;;;;;5002339;28;20499;-60
2022/11/13 09:55:14;;;;;;;12.60;9.20;;;15.00;99.90;;;;;;5002503;28;20377;-61
2022/11/13 09:57:57;;;;;;;11.45;9.38;;;14.70;99.90;;;;;;5001589;28;20128;-60
2022/11/13 10:00:22;;;;;;;10.90;9.27;;;15.10;99.90;;;;;;4984984;28;20045;-60
2022/11/13 10:03:05;;;;;;;9.80;8.27;;;15.50;99.90;;;;;;5001627;28;20109;-61
2022/11/13 10:05:37;;;;;;;10.65;9.38;;;15.40;99.90;;;;;;5000526;28;20037;-60
2022/11/13 10:08:10;;;;;;;11.57;9.32;;;15.60;99.90;;;;;;5000672;28;20054;-61
2022/11/13 10:10:45;;;;;;;11.77;8.77;;;15.30;99.90;;;;;;5002684;28;20073;-62
2022/11/13 10:13:16;;;;;;;11.77;9.20;;;15.60;99.90;;;;;;5005633;28;20089;-59
2022/11/13 10:15:47;;;;;;;10.50;8.82;;;15.70;99.90;;;;;;5005730;28;20037;-60
2022/11/13 10:18:28;;;;;;;10.10;8.95;;;16.30;99.90;;;;;;5005905;28;20046;-61
2022/11/13 10:21:02;;;;;;;15.73;9.23;;;16.60;99.90;;;;;;4987014;28;20030;-60
2022/11/13 10:23:32;;;;;;;11.87;9.67;;;16.80;99.90;;;;;;5005675;28;20050;-61
2022/11/13 10:26:14;;;;;;;11.23;9.13;;;16.30;99.90;;;;;;5006070;28;20499;-60
2022/11/13 10:28:40;;;;;;;12.45;9.30;;;16.10;99.90;;;;;;4987674;28;20610;-62
2022/11/13 10:31:10;;;;;;;10.20;9.02;;;15.50;99.90;;;;;;4993918;28;20058;-59
2022/11/13 10:33:35;;;;;;;11.23;8.82;;;14.90;99.90;;;;;;5004440;28;20045;-62
2022/11/13 10:36:06;;;;;;;10.65;9.27;;;15.00;99.90;;;;;;5000892;28;20514;-61
2022/11/13 10:38:45;;;;;;;11.02;9.35;;;14.80;99.90;;;;;;5003418;28;20050;-62
2022/11/13 10:41:15;;;;;;;11.02;9.45;;;14.70;99.90;;;;;;5002985;28;20065;-60
2022/11/13 10:43:54;;;;;;;11.50;9.45;;;14.50;99.90;;;;;;4984814;28;20057;-60
2022/11/13 10:46:25;;;;;;;10.65;8.60;;;13.90;99.90;;;;;;5003386;28;20058;-61
2022/11/13 10:48:51;;;;;;;10.60;9.10;;;14.10;99.90;;;;;;5004954;28;20076;-60
2022/11/13 10:51:31;;;;;;;10.32;8.70;;;14.60;99.90;;;;;;5003083;28;20828;-61
2022/11/13 10:53:58;;;;;;;11.75;8.77;;;15.00;99.90;;;;;;5004595;28;20508;-62
2022/11/13 10:56:27;;;;;;;10.13;8.98;;;15.50;99.90;;;;;;5005218;28;20092;-60
2022/11/13 10:59:12;;;;;;;11.45;8.73;;;15.80;99.90;;;;;;5004532;28;20050;-62
2022/11/13 11:01:38;;;;;;;11.45;9.25;;;15.70;99.90;;;;;;5005413;28;20397;-62
2022/11/13 11:04:26;;;;;;;9.80;8.68;;;15.30;99.90;;;;;;5003240;28;20088;-62
2022/11/13 11:06:53;;;;;;;10.60;8.80;;;15.00;99.90;;;;;;5005214;28;20100;-61
2022/11/13 11:09:30;;;;;;;11.32;9.20;;;15.90;99.90;;;;;;5005123;28;20053;-61
2022/11/13 11:12:17;;;;;;;10.40;9.25;;;16.20;99.90;;;;;;5004465;28;20042;-61
2022/11/13 11:14:58;;;;;;;11.93;9.40;;;16.00;99.90;;;;;;5003780;28;20045;-61
2022/11/13 11:17:48;;;;;;;10.07;8.88;;;15.80;99.90;;;;;;5004817;28;20058;-62
2022/11/13 11:20:40;;;;;;;10.40;8.77;;;15.70;99.90;;;;;;5003112;28;20084;-61
2022/11/13 11:23:32;;;;;;;10.68;9.07;;;15.80;99.90;;;;;;5004888;28;20075;-60
2022/11/13 11:26:23;;;;;;;15.20;8.50;;;15.40;99.90;;;;;;4986537;28;20076;-64
2022/11/13 11:29:04;;;;;;;9.85;8.85;;;15.60;99.90;;;;;;4984299;28;20058;-59
2022/11/13 11:31:38;;;;;;;12.35;9.00;;;15.50;99.90;;;;;;4984776;28;20453;-63
2022/11/13 11:34:22;;;;;;;11.13;8.90;;;15.70;99.90;;;;;;4983789;28;20050;-60
2022/11/13 11:36:57;;;;;;;10.93;8.75;;;16.00;99.90;;;;;;4967310;28;20046;-61
2022/11/13 11:39:36;;;;;;;11.38;8.93;;;16.00;99.90;;;;;;4985022;28;20432;-61
2022/11/13 11:42:21;;;;;;;12.10;9.13;;;15.40;99.90;;;;;;5000690;28;20054;-63
2022/11/13 11:45:01;;;;;;;10.57;9.27;;;15.50;99.90;;;;;;5002188;28;20916;-61
2022/11/13 11:47:27;;;;;;;9.60;8.60;;;15.30;99.90;;;;;;5003830;28;20050;-63
2022/11/13 11:49:54;;;;;;;11.05;9.43;;;15.60;99.90;;;;;;5003578;28;20468;-61
2022/11/13 11:52:28;;;;;;;10.15;8.88;;;15.00;99.90;;;;;;5003404;28;20125;-61
2022/11/13 11:55:28;;;;;;;10.73;9.55;;;15.10;99.90;;;;;;5004065;28;20081;-62
2022/11/13 11:57:54;;;;;;;11.65;9.73;;;15.50;99.90;;;;;;5003221;28;20697;-62
2022/11/13 12:00:20;;;;;;;11.77;9.48;;;15.50;99.90;;;;;;5003334;28;20125;-62
2022/11/13 12:03:03;;;;;;;10.85;9.50;;;15.50;99.90;;;;;;5002853;28;20057;-61
2022/11/13 12:05:39;;;;;;;11.05;9.32;;;15.80;99.90;;;;;;5001109;28;20077;-63
2022/11/13 12:08:36;;;;;;;11.38;9.77;;;15.90;99.90;;;;;;5003157;28;20152;-60
2022/11/13 12:11:12;;;;;;;11.70;10.05;;;16.10;99.90;;;;;;5002465;28;20046;-60
2022/11/13 12:13:48;;;;;;;11.27;8.88;;;16.20;99.90;;;;;;5002444;28;20057;-62
2022/11/13 12:16:17;;;;;;;11.65;9.95;;;15.70;99.90;;;;;;5003007;28;20054;-63
2022/11/13 12:18:45;;;;;;;12.30;10.13;;;15.60;99.90;;;;;;5002874;28;20042;-62
2022/11/13 12:21:23;;;;;;;11.57;9.75;;;15.20;99.90;;;;;;5000880;28;20041;-62
2022/11/13 12:23:57;;;;;;;11.02;9.90;;;15.20;99.90;;;;;;4983689;28;20042;-63
2022/11/13 12:26:33;;;;;;;;;;;15.10;99.90;;;;;;4982594;28;20054;-60
2022/11/13 12:29:24;;;;;;;10.43;8.98;;;15.30;99.90;;;;;;4987172;28;19925;-63
2022/11/13 12:32:11;;;;;;;11.00;9.85;;;15.50;99.90;;;;;;4994058;28;20058;-60
2022/11/13 12:34:44;;;;;;;10.27;9.23;;;15.40;99.90;;;;;;5001458;28;20046;-60
2022/11/13 12:37:43;;;;;;;11.52;10.07;;;14.90;99.90;;;;;;5003378;28;20050;-60
2022/11/13 12:40:24;;;;;;;11.02;9.90;;;15.00;99.90;;;;;;4998187;28;20568;-60
2022/11/13 12:43:01;;;;;;;11.27;9.27;;;14.60;99.90;;;;;;5002808;28;20049;-60
2022/11/13 12:45:26;;;;;;;13.00;9.93;;;14.60;99.90;;;;;;5003995;28;20397;-62
2022/11/13 12:47:52;;;;;;;10.55;9.43;;;14.50;99.90;;;;;;4985931;28;20061;-62
2022/11/13 12:50:29;;;;;;;11.90;10.18;;;14.70;99.90;;;;;;5002056;28;20046;-61